Time;durP1;ratioP1;P1;durP2;ratioP2;P2;SDS_P1;SDS_P2;PMS_P1;PMS_P2;Temp;Humidity;BMP_temperature;BMP_pressure;BME280_temperature;BME280_humidity;BME280_pressure;Samples;Min_cycle;Max_cycle;Signal;HPM_P1;HPM_P2
2022/08/23 00:01:04;;;;;;;;;;;21.00;99.90;;;;;;5056776;28;20345;-81
2022/08/23 00:03:29;;;;;;;;;;;21.00;99.90;;;;;;5074302;28;19908;-81
2022/08/23 00:05:55;;;;;;;;;;;21.10;99.90;;;;;;5074175;28;20478;-81
2022/08/23 00:08:21;;;;;;;;;;;21.00;99.90;;;;;;5074204;28;19919;-81
2022/08/23 00:10:46;;;;;;;;;;;21.00;99.90;;;;;;5074577;28;19961;-82
2022/08/23 00:13:12;;;;;;;;;;;21.00;99.90;;;;;;5074135;28;20368;-83
2022/08/23 00:15:37;;;;;;;;;;;21.10;99.90;;;;;;5074290;28;20009;-81
2022/08/23 00:18:03;;;;;;;;;;;21.20;99.90;;;;;;5074145;28;19908;-81
2022/08/23 00:20:29;;;;;;;;;;;21.10;99.90;;;;;;5074042;28;20300;-81
2022/08/23 00:22:55;;;;;;;;;;;21.10;99.90;;;;;;5056039;28;19908;-80
2022/08/23 00:25:20;;;;;;;;;;;21.20;99.90;;;;;;5073988;28;20327;-79
2022/08/23 00:27:46;;;;;;;;;;;21.20;99.90;;;;;;5073956;28;19909;-81
2022/08/23 00:30:12;;;;;;;;;;;21.30;99.90;;;;;;5073881;28;20322;-81
2022/08/23 00:32:38;;;;;;;;;;;21.40;99.90;;;;;;5073967;28;20435;-80
2022/08/23 00:35:04;;;;;;;;;;;21.50;99.90;;;;;;5074083;28;19940;-79
2022/08/23 00:37:33;;;;;;;;;;;21.60;99.90;;;;;;5073894;28;20285;-81
2022/08/23 00:39:59;;;;;;;;;;;21.50;99.90;;;;;;5073686;28;20007;-80
2022/08/23 00:47:59;;;;;;;;;;;21.20;99.90;;;;;;5073638;28;19974;-80
2022/08/23 00:50:29;;;;;;;;;;;21.10;99.90;;;;;;5073623;28;19909;-82
2022/08/23 00:52:57;;;;;;;;;;;21.00;99.90;;;;;;5073959;28;19915;-80
2022/08/23 00:55:24;;;;;;;;;;;20.80;99.90;;;;;;5074142;28;19999;-80
2022/08/23 00:57:50;;;;;;;;;;;20.90;99.90;;;;;;5074243;28;19908;-82
2022/08/23 01:00:16;;;;;;;;;;;21.00;99.90;;;;;;5073517;28;19961;-81
2022/08/23 01:02:44;;;;;;;;;;;20.80;99.90;;;;;;5072937;28;19913;-79
2022/08/23 01:05:11;;;;;;;;;;;20.90;99.90;;;;;;5073495;28;20276;-80
2022/08/23 01:07:53;;;;;;;;;;;20.60;99.90;;;;;;5073573;28;20284;-82
2022/08/23 01:10:24;;;;;;;;;;;20.60;99.90;;;;;;5073410;28;19958;-80
2022/08/23 01:12:53;;;;;;;;;;;20.60;99.90;;;;;;5073456;28;19908;-82
2022/08/23 01:15:22;;;;;;;;;;;20.80;99.90;;;;;;5073372;28;19974;-81
2022/08/23 01:17:56;;;;;;;;;;;20.80;99.90;;;;;;5073618;28;19908;-83
2022/08/23 01:20:23;;;;;;;;;;;20.90;99.90;;;;;;5073251;28;19979;-81
2022/08/23 01:23:00;;;;;;;;;;;20.90;99.90;;;;;;5073326;28;20054;-80
2022/08/23 01:25:27;;;;;;;;;;;20.90;99.90;;;;;;5073459;28;19908;-81
2022/08/23 01:27:53;;;;;;;;;;;20.90;99.90;;;;;;5073230;28;19908;-80
2022/08/23 01:30:21;;;;;;;;;;;20.80;99.90;;;;;;5073268;28;19909;-80
2022/08/23 01:32:49;;;;;;;;;;;21.00;99.90;;;;;;5073246;28;19916;-82
2022/08/23 01:35:15;;;;;;;;;;;21.20;99.90;;;;;;5073229;28;19931;-81
2022/08/23 01:37:41;;;;;;;;;;;21.30;99.90;;;;;;5073404;28;20376;-79
2022/08/23 01:40:07;;;;;;;;;;;21.30;99.90;;;;;;5055051;28;19917;-81
2022/08/23 01:42:32;;;;;;;;;;;21.30;99.90;;;;;;5073129;28;19913;-81
2022/08/23 01:44:58;;;;;;;;;;;21.20;99.90;;;;;;5072975;28;19920;-80
2022/08/23 01:47:23;;;;;;;;;;;21.30;99.90;;;;;;5072975;28;20355;-81
2022/08/23 01:49:49;;;;;;;;;;;21.20;99.90;;;;;;5073545;28;19958;-80
2022/08/23 01:52:16;;;;;;;;;;;21.00;99.90;;;;;;5073366;28;19915;-81
2022/08/23 01:54:42;;;;;;;;;;;21.10;99.90;;;;;;5073556;28;19904;-81
2022/08/23 01:57:09;;;;;;;;;;;21.20;99.90;;;;;;5075195;28;19909;-81
2022/08/23 01:59:35;;;;;;;;;;;21.20;99.90;;;;;;5076618;28;19999;-81
2022/08/23 02:02:01;;;;;;;;;;;21.40;99.90;;;;;;5076552;28;19947;-80
2022/08/23 02:04:28;;;;;;;;;;;21.40;99.90;;;;;;5076557;28;20398;-80
2022/08/23 02:06:53;;;;;;;;;;;21.40;99.90;;;;;;5058548;28;19978;-80
2022/08/23 02:09:19;;;;;;;;;;;21.20;99.90;;;;;;5076619;28;19952;-81
2022/08/23 02:11:45;;;;;;;;;;;21.30;99.90;;;;;;5076479;28;20273;-80
2022/08/23 02:14:13;;;;;;;;;;;21.20;99.90;;;;;;5076403;28;20427;-80
2022/08/23 02:16:40;;;;;;;;;;;21.30;99.90;;;;;;5076395;28;19930;-80
2022/08/23 02:19:07;;;;;;;;;;;21.30;99.90;;;;;;5076332;28;19939;-80
2022/08/23 02:21:34;;;;;;;;;;;21.30;99.90;;;;;;5076333;28;20462;-80
2022/08/23 02:24:07;;;;;;;;;;;21.40;99.90;;;;;;5076692;28;20284;-82
2022/08/23 02:26:36;;;;;;;;;;;21.30;99.90;;;;;;5076220;28;19915;-80
2022/08/23 02:29:02;;;;;;;;;;;21.20;99.90;;;;;;5076183;28;19913;-81
2022/08/23 02:31:28;;;;;;;;;;;21.20;99.90;;;;;;5058120;28;20326;-80
2022/08/23 02:33:54;;;;;;;;;;;21.20;99.90;;;;;;5076219;28;19913;-81
2022/08/23 02:36:19;;;;;;;;;;;21.20;99.90;;;;;;5076288;28;19913;-81
2022/08/23 02:38:45;;;;;;;;;;;21.10;99.90;;;;;;5075898;28;19915;-82
2022/08/23 02:41:11;;;;;;;;;;;21.10;99.90;;;;;;5075971;28;19908;-80
2022/08/23 02:43:36;;;;;;;;;;;21.10;99.90;;;;;;5057846;28;19951;-81
2022/08/23 02:46:05;;;;;;;;;;;21.20;99.90;;;;;;5075922;28;19909;-80
2022/08/23 02:48:32;;;;;;;;;;;21.00;99.90;;;;;;5075447;28;19920;-81
2022/08/23 02:50:59;;;;;;;;;;;21.20;99.90;;;;;;5075824;28;19909;-79
2022/08/23 02:53:25;;;;;;;;;;;21.30;99.90;;;;;;5075943;28;19915;-81
2022/08/23 02:55:50;;;;;;;;;;;21.30;99.90;;;;;;5076463;28;19909;-80
2022/08/23 02:58:16;;;;;;;;;;;21.30;99.90;;;;;;5075617;28;19913;-82
2022/08/23 03:00:45;;;;;;;;;;;21.40;99.90;;;;;;5075534;28;20284;-80
2022/08/23 03:03:11;;;;;;;;;;;21.20;99.90;;;;;;5075588;28;20001;-83
2022/08/23 03:05:36;;;;;;;;;;;21.30;99.90;;;;;;5075549;28;19909;-80
2022/08/23 03:08:03;;;;;;;;;;;21.20;99.90;;;;;;5075087;28;19935;-81
2022/08/23 03:10:28;;;;;;;;;;;21.10;99.90;;;;;;5075501;28;19958;-80
2022/08/23 03:12:54;;;;;;;;;;;21.10;99.90;;;;;;5075425;28;19912;-81
2022/08/23 03:15:20;;;;;;;;;;;21.00;99.90;;;;;;5075246;28;19908;-81
2022/08/23 03:17:45;;;;;;;;;;;21.00;99.90;;;;;;5075485;28;19915;-81
2022/08/23 03:20:11;;;;;;;;;;;20.80;99.90;;;;;;5075299;28;19965;-80
2022/08/23 03:22:36;;;;;;;;;;;20.90;99.90;;;;;;5075142;28;20284;-81
2022/08/23 03:25:03;;;;;;;;;;;21.00;99.90;;;;;;5075165;28;19995;-82
2022/08/23 03:27:30;;;;;;;;;;;21.00;99.90;;;;;;5075047;28;19908;-80
2022/08/23 03:29:56;;;;;;;;;;;21.10;99.90;;;;;;5075464;28;19908;-83
2022/08/23 03:32:21;;;;;;;;;;;21.10;99.90;;;;;;5057046;28;19942;-81
2022/08/23 03:34:47;;;;;;;;;;;21.00;99.90;;;;;;5074902;28;19912;-81
2022/08/23 03:37:13;;;;;;;;;;;21.10;99.90;;;;;;5074837;28;19908;-80
2022/08/23 03:39:39;;;;;;;;;;;21.30;99.90;;;;;;5074778;28;20365;-81
2022/08/23 03:42:04;;;;;;;;;;;21.30;99.90;;;;;;5075207;28;19954;-82
2022/08/23 03:44:30;;;;;;;;;;;21.20;99.90;;;;;;5074677;28;19947;-83
2022/08/23 03:46:55;;;;;;;;;;;21.20;99.90;;;;;;5074477;28;19920;-79
2022/08/23 03:49:21;;;;;;;;;;;21.10;99.90;;;;;;5074622;28;19951;-80
2022/08/23 03:51:47;;;;;;;;;;;21.10;99.90;;;;;;5074628;28;19909;-79
2022/08/23 03:54:12;;;;;;;;;;;21.00;99.90;;;;;;5074979;28;19909;-80
2022/08/23 03:56:48;;;;;;;;;;;21.10;99.90;;;;;;5075325;28;19916;-82
2022/08/23 03:59:14;;;;;;;;;;;21.00;99.90;;;;;;5074490;28;19912;-81
2022/08/23 04:01:39;;;;;;;;;;;20.90;99.90;;;;;;5074333;28;20262;-79
2022/08/23 04:04:05;;;;;;;;;;;20.90;99.90;;;;;;5074715;28;19912;-81
2022/08/23 04:06:31;;;;;;;;;;;20.80;99.90;;;;;;5074500;28;20354;-81
2022/08/23 04:08:57;;;;;;;;;;;20.80;99.90;;;;;;5074293;28;19909;-80
2022/08/23 04:11:24;;;;;;;;;;;20.80;99.90;;;;;;5074275;28;20003;-81
2022/08/23 04:13:50;;;;;;;;;;;20.80;99.90;;;;;;5074630;28;19908;-82
2022/08/23 04:16:17;;;;;;;;;;;20.90;99.90;;;;;;5074096;28;19959;-81
2022/08/23 04:18:43;;;;;;;;;;;20.90;99.90;;;;;;5073424;28;20298;-80
2022/08/23 04:21:11;;;;;;;;;;;21.00;99.90;;;;;;5074114;28;19919;-82
2022/08/23 04:23:38;;;;;;;;;;;21.00;99.90;;;;;;5074231;28;20353;-82
2022/08/23 04:26:05;;;;;;;;;;;20.80;99.90;;;;;;5074118;28;19934;-80
2022/08/23 04:28:31;;;;;;;;;;;20.70;99.90;;;;;;5074471;28;20327;-82
2022/08/23 04:30:59;;;;;;;;;;;20.90;99.90;;;;;;5074562;28;19908;-82
2022/08/23 04:33:25;;;;;;;;;;;21.00;99.90;;;;;;5073946;28;20006;-80
2022/08/23 04:35:51;;;;;;;;;;;21.00;99.90;;;;;;5074055;28;20369;-81
2022/08/23 04:38:16;;;;;;;;;;;20.90;99.90;;;;;;5074174;28;19916;-82
2022/08/23 04:43:26;;;;;;;;;;;20.80;99.90;;;;;;5073617;28;20379;-79
2022/08/23 04:45:51;;;;;;;;;;;20.90;99.90;;;;;;5055736;28;19943;-82
2022/08/23 04:48:17;;;;;;;;;;;20.80;99.90;;;;;;5073525;28;19920;-81
2022/08/23 04:50:43;;;;;;;;;;;20.80;99.90;;;;;;5073859;28;19917;-79
2022/08/23 04:53:08;;;;;;;;;;;20.80;99.90;;;;;;5073637;28;19958;-81
2022/08/23 04:55:34;;;;;;;;;;;21.00;99.90;;;;;;5074363;28;19909;-80
2022/08/23 04:58:00;;;;;;;;;;;20.90;99.90;;;;;;5074051;28;19908;-81
2022/08/23 05:00:25;;;;;;;;;;;20.90;99.90;;;;;;5055566;28;19919;-81
2022/08/23 05:02:51;;;;;;;;;;;21.10;99.90;;;;;;5073723;28;20018;-79
2022/08/23 05:05:18;;;;;;;;;;;21.10;99.90;;;;;;5073584;28;20373;-78
2022/08/23 05:07:44;;;;;;;;;;;21.10;99.90;;;;;;5073729;28;19908;-80
2022/08/23 05:10:11;;;;;;;;;;;21.10;99.90;;;;;;5073546;28;20395;-79
2022/08/23 05:12:37;;;;;;;;;;;20.80;99.90;;;;;;5073480;28;19909;-79
2022/08/23 05:15:03;;;;;;;;;;;20.80;99.90;;;;;;5073433;28;19908;-81
2022/08/23 05:17:28;;;;;;;;;;;20.80;99.90;;;;;;5073480;28;19908;-79
2022/08/23 05:19:54;;;;;;;;;;;20.80;99.90;;;;;;5073371;28;19919;-81
2022/08/23 05:22:20;;;;;;;;;;;20.90;99.90;;;;;;5073783;28;19923;-82
2022/08/23 05:24:45;;;;;;;;;;;20.90;99.90;;;;;;5073456;28;19915;-81
2022/08/23 05:27:11;;;;;;;;;;;20.70;99.90;;;;;;5073421;28;20301;-81
2022/08/23 05:29:37;;;;;;;;;;;20.80;99.90;;;;;;5073598;28;19909;-81
2022/08/23 05:32:02;;;;;;;;;;;20.70;99.90;;;;;;5077374;28;19909;-80
2022/08/23 05:34:28;;;;;;;;;;;20.80;99.90;;;;;;5077247;28;20288;-80
2022/08/23 05:36:54;;;;;;;;;;;20.80;99.90;;;;;;5077396;28;20350;-81
2022/08/23 05:39:20;;;;;;;;;;;20.80;99.90;;;;;;5077052;28;19919;-80
2022/08/23 05:41:45;;;;;;;;;;;20.70;99.90;;;;;;5077056;28;19947;-80
2022/08/23 05:44:11;;;;;;;;;;;20.80;99.90;;;;;;5076977;28;19919;-80
2022/08/23 05:46:37;;;;;;;;;;;21.00;99.90;;;;;;5076776;28;20364;-80
2022/08/23 05:49:03;;;;;;;;;;;20.90;99.90;;;;;;5077005;28;19908;-80
2022/08/23 05:51:30;;;;;;;;;;;20.90;99.90;;;;;;5076845;28;19915;-81
2022/08/23 05:53:57;;;;;;;;;;;20.90;99.90;;;;;;5076855;28;19909;-80
2022/08/23 05:56:25;;;;;;;;;;;21.10;99.90;;;;;;5077294;28;20013;-82
2022/08/23 05:58:52;;;;;;;;;;;21.00;99.90;;;;;;5076643;28;19961;-81
2022/08/23 06:01:18;;;;;;;;;;;21.00;99.90;;;;;;5076749;28;19909;-82
2022/08/23 06:03:44;;;;;;;;;;;20.90;99.90;;;;;;5076847;28;19909;-79
2022/08/23 06:06:11;;;;;;;;;;;21.10;99.90;;;;;;5076667;28;20395;-82
2022/08/23 06:08:38;;;;;;;;;;;21.10;99.90;;;;;;5076651;28;19908;-78
2022/08/23 06:11:25;;;;;;;;;;;20.90;99.90;;;;;;5076456;28;19990;-80
2022/08/23 06:13:52;;;;;;;;;;;21.00;99.90;;;;;;5077125;28;20320;-81
2022/08/23 06:16:20;;;;;;;;;;;21.00;99.90;;;;;;5076394;28;19915;-80
2022/08/23 06:18:46;;;;;;;;;;;21.00;99.90;;;;;;5076316;28;20006;-80
2022/08/23 06:21:12;;;;;;;;;;;21.30;99.90;;;;;;5076379;28;19996;-81
2022/08/23 06:23:38;;;;;;;;;;;21.40;99.90;;;;;;5076289;28;19909;-82
2022/08/23 06:26:10;;;;;;;;;;;21.50;99.90;;;;;;5076296;28;19916;-82
2022/08/23 06:28:35;;;;;;;;;;;21.50;99.90;;;;;;5076165;28;19908;-81
2022/08/23 06:31:01;;;;;;;;;;;21.60;99.90;;;;;;5076130;28;20000;-80
2022/08/23 06:33:27;;;;;;;;;;;22.10;99.90;;;;;;5076153;28;19916;-81
2022/08/23 06:36:03;;;;;;;;;;;22.60;99.90;;;;;;5076178;28;19995;-82
2022/08/23 06:38:29;;;;;;;;;;;22.70;99.90;;;;;;5076066;28;19916;-81
2022/08/23 06:41:00;;;;;;;;;;;22.50;99.90;;;;;;5076349;28;19912;-82
2022/08/23 06:43:26;;;;;;;;;;;22.60;99.90;;;;;;5075074;28;19909;-81
2022/08/23 06:45:52;;;;;;;;;;;22.80;99.90;;;;;;5076056;28;20045;-81
2022/08/23 06:48:17;;;;;;;;;;;22.90;99.90;;;;;;5075772;28;20439;-79
2022/08/23 06:50:43;;;;;;;;;;;22.90;99.90;;;;;;5075789;28;19931;-82
2022/08/23 06:53:09;;;;;;;;;;;23.00;99.90;;;;;;5076027;28;19909;-79
2022/08/23 06:55:35;;;;;;;;;;;23.00;99.90;;;;;;5076516;28;19918;-79
2022/08/23 06:58:02;;;;;;;;;;;23.30;99.90;;;;;;5075800;28;19908;-83
2022/08/23 07:00:28;;;;;;;;;;;23.30;99.90;;;;;;5075580;28;19920;-82
2022/08/23 07:02:53;;;;;;;;;;;23.50;99.90;;;;;;5075605;28;19930;-80
2022/08/23 07:05:20;;;;;;;;;;;23.40;99.90;;;;;;5075568;28;20206;-79
2022/08/23 07:07:45;;;;;;;;;;;23.20;99.90;;;;;;5075579;28;20368;-78
2022/08/23 07:10:12;;;;;;;;;;;23.00;99.90;;;;;;5075688;28;19908;-81
2022/08/23 07:12:39;;;;;;;;;;;22.70;99.90;;;;;;5075365;28;19908;-80
2022/08/23 07:15:05;;;;;;;;;;;22.60;99.90;;;;;;5075300;28;19916;-80
2022/08/23 07:17:31;;;;;;;;;;;22.50;99.90;;;;;;5075287;28;19909;-82
2022/08/23 07:19:56;;;;;;;;;;;22.60;99.90;;;;;;5075319;28;19962;-80
2022/08/23 07:22:23;;;;;;;;;;;22.70;99.90;;;;;;5075364;28;19912;-78
2022/08/23 07:24:49;;;;;;;;;;;22.70;99.90;;;;;;5057497;28;19995;-81
2022/08/23 07:27:14;;;;;;;;;;;22.70;99.90;;;;;;5075376;28;20358;-80
2022/08/23 07:29:40;;;;;;;;;;;22.60;99.90;;;;;;5075874;28;19909;-81
2022/08/23 07:32:06;;;;;;;;;;;22.60;99.90;;;;;;5059029;28;19908;-80
2022/08/23 07:34:32;;;;;;;;;;;22.70;99.90;;;;;;5076626;28;19913;-81
2022/08/23 07:36:57;;;;;;;;;;;23.00;99.90;;;;;;5057638;28;19909;-82
2022/08/23 07:39:25;;;;;;;;;;;22.90;99.90;;;;;;5076292;28;19995;-79
2022/08/23 07:41:51;;;;;;;;;;;22.90;99.90;;;;;;5076549;28;19999;-80
2022/08/23 07:44:17;;;;;;;;;;;23.20;99.90;;;;;;5076660;28;19915;-79
2022/08/23 07:46:43;;;;;;;;;;;23.30;99.90;;;;;;5076717;28;20292;-80
2022/08/23 07:49:09;;;;;;;;;;;23.40;99.90;;;;;;5076974;28;19930;-82
2022/08/23 07:51:35;;;;;;;;;;;23.50;99.90;;;;;;5058691;28;20015;-81
2022/08/23 07:54:03;;;;;;;;;;;23.50;99.90;;;;;;5076642;28;19966;-83
2022/08/23 07:56:29;;;;;;;;;;;23.70;99.90;;;;;;5077495;28;20363;-80
2022/08/23 07:58:54;;;;;;;;;;;23.70;99.90;;;;;;5076337;28;19908;-81
2022/08/23 08:01:24;;;;;;;;;;;23.90;99.90;;;;;;5076604;28;20010;-79
2022/08/23 08:03:53;;;;;;;;;;;24.40;99.90;;;;;;5076648;28;19909;-80
2022/08/23 08:06:25;;;;;;;;;;;24.30;99.90;;;;;;5076455;28;19962;-80
2022/08/23 08:08:51;;;;;;;;;;;23.90;99.90;;;;;;5076672;28;19908;-80
2022/08/23 08:11:19;;;;;;;;;;;23.70;99.90;;;;;;5076518;28;19931;-83
2022/08/23 08:13:45;;;;;;;;;;;23.70;99.90;;;;;;5058554;28;19975;-81
2022/08/23 08:16:21;;;;;;;;;;;24.00;99.90;;;;;;5076703;28;19951;-82
2022/08/23 08:18:47;;;;;;;;;;;24.30;99.90;;;;;;5058526;28;19909;-81
2022/08/23 08:21:13;;;;;;;;;;;24.40;99.90;;;;;;5075197;28;20414;-81
2022/08/23 08:23:40;;;;;;;;;;;24.20;99.90;;;;;;5074437;28;19995;-81
2022/08/23 08:26:06;;;;;;;;;;;24.30;99.90;;;;;;5074413;28;19908;-80
2022/08/23 08:28:33;;;;;;;;;;;24.50;99.90;;;;;;5074312;28;19920;-82
2022/08/23 08:30:58;;;;;;;;;;;24.60;99.90;;;;;;5074373;28;19916;-79
2022/08/23 08:33:29;;;;;;;;;;;24.30;99.90;;;;;;5074394;28;20368;-83
2022/08/23 08:35:55;;;;;;;;;;;24.50;99.90;;;;;;5056361;28;19908;-82
2022/08/23 08:38:20;;;;;;;;;;;24.80;99.90;;;;;;5074366;28;20024;-80
2022/08/23 08:40:48;;;;;;;;;;;25.00;99.90;;;;;;5075114;28;19916;-80
2022/08/23 08:43:15;;;;;;;;;;;25.00;99.90;;;;;;5075663;28;19908;-81
2022/08/23 08:45:48;;;;;;;;;;;25.00;99.90;;;;;;5075134;28;19919;-81
2022/08/23 08:48:19;;;;;;;;;;;25.00;99.90;;;;;;5075119;28;19920;-80
2022/08/23 08:51:00;;;;;;;;;;;25.30;99.90;;;;;;5076263;28;19916;-82
2022/08/23 08:53:33;;;;;;;;;;;25.90;99.90;;;;;;5075895;28;19908;-84
2022/08/23 08:56:01;;;;;;;;;;;25.80;99.90;;;;;;5076561;28;19915;-80
2022/08/23 08:58:34;;;;;;;;;;;25.40;99.90;;;;;;5057182;28;21081;-82
2022/08/23 09:01:00;;;;;;;;;;;25.20;99.90;;;;;;5075796;28;20352;-82
2022/08/23 09:03:27;;;;;;;;;;;24.90;99.90;;;;;;5075854;28;19962;-81
2022/08/23 09:05:59;;;;;;;;;;;24.70;99.90;;;;;;5078796;28;19912;-83
2022/08/23 09:08:45;;;;;;;;;;;24.70;99.90;;;;;;5081011;28;19908;-80
2022/08/23 09:11:11;;;;;;;;;;;24.90;99.90;;;;;;5080946;28;19916;-81
2022/08/23 09:13:55;;;;;;;;;;;24.90;99.90;;;;;;5080994;28;20388;-82
2022/08/23 09:16:30;;;;;;;;;;;25.50;99.90;;;;;;5081763;28;19916;-81
2022/08/23 09:18:58;;;;;;;;;;;25.10;99.90;;;;;;5081439;28;19958;-80
2022/08/23 09:21:23;;;;;;;;;;;24.90;99.90;;;;;;5081138;28;19909;-82
2022/08/23 09:23:49;;;;;;;;;;;24.90;99.90;;;;;;5080812;28;19908;-81
2022/08/23 09:26:24;;;;;;;;;;;25.20;99.90;;;;;;5080880;28;20295;-80
2022/08/23 09:28:58;;;;;;;;;;;25.00;99.90;;;;;;5080756;28;20007;-80
2022/08/23 09:31:40;;;;;;;;;;;24.80;99.90;;;;;;5081166;28;20027;-80
2022/08/23 09:34:06;;;;;;;;;;;24.80;99.90;;;;;;5081198;28;19908;-80
2022/08/23 09:36:33;;;;;;;;;;;24.80;99.90;;;;;;5081138;28;19920;-82
2022/08/23 09:39:01;;;;;;;;;;;25.10;99.90;;;;;;5081057;28;20373;-82
2022/08/23 09:41:31;;;;;;;;;;;25.30;99.90;;;;;;5081576;28;19915;-82
2022/08/23 09:44:00;;;;;;;;;;;25.40;99.90;;;;;;5081034;28;19931;-82
2022/08/23 09:46:27;;;;;;;;;;;25.70;99.90;;;;;;5081061;28;19909;-83
2022/08/23 09:48:54;;;;;;;;;;;25.90;99.90;;;;;;5081535;28;19970;-83
2022/08/23 09:51:24;;;;;;;;;;;26.50;99.90;;;;;;5063278;28;20304;-81
2022/08/23 09:54:01;;;;;;;;;;;26.90;99.90;;;;;;5081250;28;19908;-82
2022/08/23 09:56:27;;;;;;;;;;;26.90;99.90;;;;;;5081686;28;19950;-81
2022/08/23 09:58:53;;;;;;;;;;;26.80;99.90;;;;;;5081298;28;19909;-77
2022/08/23 10:01:20;;;;;;;;;;;26.70;99.90;;;;;;5081877;28;20342;-80
2022/08/23 10:04:04;;;;;;;;;;;26.50;99.90;;;;;;5081067;28;19909;-78
2022/08/23 10:06:30;;;;;;;;;;;26.70;99.90;;;;;;5081787;28;19915;-78
2022/08/23 10:08:59;;;;;;;;;;;26.70;99.90;;;;;;5080713;28;19908;-78
2022/08/23 10:11:28;;;;;;;;;;;27.00;99.90;;;;;;5081112;28;19908;-81
2022/08/23 10:13:53;;;;;;;;;;;27.80;99.90;;;;;;5081089;28;20465;-79
2022/08/23 10:16:19;;;;;;;;;;;29.20;99.90;;;;;;5079526;28;19917;-78
2022/08/23 10:18:53;;;;;;;;;;;29.00;99.90;;;;;;5077302;28;20283;-79
2022/08/23 10:21:38;;;;;;;;;;;28.00;99.90;;;;;;5059834;28;19916;-81
2022/08/23 10:24:14;;;;;;;;;;;27.40;99.90;;;;;;5077677;28;19909;-82
2022/08/23 10:29:35;;;;;;;;;;;27.60;99.90;;;;;;5077402;28;20398;-81
2022/08/23 10:29:51;;;;;;;;;;;28.80;99.90;;;;;;5077166;28;20007;-84
2022/08/23 10:32:16;;;;;;;;;;;29.00;99.90;;;;;;5077661;28;19916;-78
2022/08/23 10:35:02;;;;;;;;;;;28.20;99.90;;;;;;5077858;28;19912;-79
2022/08/23 10:37:30;;;;;;;;;;;27.00;99.90;;;;;;5077547;28;19940;-80
2022/08/23 10:40:02;;;;;;;;;;;26.20;99.90;;;;;;5077563;28;19935;-80
2022/08/23 10:42:42;;;;;;;;;;;26.00;99.90;;;;;;5077548;28;20269;-81
2022/08/23 10:45:15;;;;;;;;;;;25.80;99.90;;;;;;5077458;28;20269;-80
2022/08/23 10:47:52;;;;;;;;;;;25.30;99.90;;;;;;5077509;28;19942;-82
2022/08/23 10:50:19;;;;;;;;;;;24.90;99.90;;;;;;5077445;28;19915;-82
2022/08/23 10:52:50;;;;;;;;;;;25.00;99.90;;;;;;5077773;28;19916;-82
2022/08/23 10:55:35;;;;;;;;;;;25.10;99.90;;;;;;5077604;28;20314;-80
2022/08/23 10:58:06;;;;;;;;;;;25.10;99.90;;;;;;5075610;28;19913;-81
2022/08/23 11:00:33;;;;;;;;;;;25.50;99.90;;;;;;5068603;28;19944;-81
2022/08/23 11:03:07;;;;;;;;;;;25.60;99.90;;;;;;5053436;28;20405;-82
2022/08/23 11:05:34;;;;;;;;;;;26.20;99.90;;;;;;5075908;28;20395;-77
2022/08/23 11:08:02;;;;;;;;;;;26.80;99.90;;;;;;5076105;28;19908;-78
2022/08/23 11:10:31;;;;;;;;;;;27.10;99.90;;;;;;5075847;28;19916;-78
2022/08/23 11:13:05;;;;;;;;;;;27.30;99.90;;;;;;5073389;28;19908;-79
2022/08/23 11:15:36;;;;;;;;;;;27.10;99.90;;;;;;5075659;28;19917;-79
2022/08/23 11:18:04;;;;;;;;;;;26.60;99.90;;;;;;5075678;28;19912;-79
2022/08/23 11:20:48;;;;;;;;;;;26.70;99.90;;;;;;5075388;28;19920;-78
2022/08/23 11:23:16;;;;;;;;;;;26.80;99.90;;;;;;5057533;28;20418;-78
2022/08/23 11:25:43;;;;;;;;;;;26.80;99.90;;;;;;5075673;28;19908;-77
2022/08/23 11:28:24;;;;;;;;;;;26.60;99.90;;;;;;5075353;28;19908;-79
2022/08/23 11:30:58;;;;;;;;;;;26.80;99.90;;;;;;5072637;28;19917;-83
2022/08/23 11:33:34;;;;;;;;;;;26.90;99.90;;;;;;5077569;28;19909;-84
2022/08/23 11:36:10;;;;;;;;;;;27.00;99.90;;;;;;5076712;28;19908;-81
2022/08/23 11:38:47;;;;;;;;;;;27.20;99.90;;;;;;5076371;28;19915;-82
2022/08/23 11:41:13;;;;;;;;;;;27.10;99.90;;;;;;5076240;28;20003;-80
2022/08/23 11:43:40;;;;;;;;;;;27.10;99.90;;;;;;5076101;28;20013;-80
2022/08/23 11:46:24;;;;;;;;;;;27.50;99.90;;;;;;5076589;28;19908;-81
2022/08/23 11:49:08;;;;;;;;;;;27.30;99.90;;;;;;5075290;28;19924;-81
2022/08/23 11:51:44;;;;;;;;;;;27.40;99.90;;;;;;5075957;28;19944;-83
2022/08/23 11:54:09;;;;;;;;;;;27.80;99.90;;;;;;5076259;28;19909;-80
2022/08/23 11:56:44;;;;;;;;;;;28.00;99.90;;;;;;5075980;28;19999;-78
2022/08/23 11:59:12;;;;;;;;;;;28.00;99.90;;;;;;5075869;28;19971;-79
2022/08/23 12:01:39;;;;;;;;;;;27.50;99.90;;;;;;5075451;28;19909;-80
2022/08/23 12:04:11;;;;;;;;;;;27.70;99.90;;;;;;5076044;28;19908;-78
2022/08/23 12:06:38;;;;;;;;;;;28.10;99.90;;;;;;5075785;28;19940;-80
2022/08/23 12:09:20;;;;;;;;;;;28.30;99.90;;;;;;5057364;28;20371;-80
2022/08/23 12:11:51;;;;;;;;;;;28.10;99.90;;;;;;5075554;28;19978;-79
2022/08/23 12:14:48;;;;;;;;;;;28.30;99.90;;;;;;5075663;28;19908;-81
2022/08/23 12:17:13;;;;;;;;;;;28.40;99.90;;;;;;5076343;28;20342;-80
2022/08/23 12:19:41;;;;;;;;;;;28.20;99.90;;;;;;5075961;28;19952;-78
2022/08/23 12:22:10;;;;;;;;;;;28.00;99.90;;;;;;5076237;28;20372;-80
2022/08/23 12:24:54;;;;;;;;;;;27.80;99.90;;;;;;5076781;28;19908;-82
2022/08/23 12:27:26;;;;;;;;;;;27.60;99.90;;;;;;5075987;28;19914;-79
2022/08/23 12:30:00;;;;;;;;;;;27.60;99.90;;;;;;5075928;28;20361;-78
2022/08/23 12:32:25;;;;;;;;;;;27.60;99.90;;;;;;5076903;28;19915;-78
2022/08/23 12:34:54;;;;;;;;;;;27.60;99.90;;;;;;5076437;28;19908;-79
2022/08/23 12:37:33;;;;;;;;;;;27.60;99.90;;;;;;5076353;28;19909;-79
2022/08/23 12:40:01;;;;;;;;;;;27.40;99.90;;;;;;5074459;28;20300;-80
2022/08/23 12:42:32;;;;;;;;;;;27.70;99.90;;;;;;5074922;28;19915;-80
2022/08/23 12:44:59;;;;;;;;;;;27.60;99.90;;;;;;5075726;28;20035;-81
2022/08/23 12:47:25;;;;;;;;;;;27.60;99.90;;;;;;5075808;28;20349;-80
2022/08/23 12:49:55;;;;;;;;;;;27.60;99.90;;;;;;5075666;28;19909;-78
2022/08/23 12:52:23;;;;;;;;;;;27.70;99.90;;;;;;5075727;28;19909;-81
2022/08/23 12:54:49;;;;;;;;;;;27.60;99.90;;;;;;5075833;28;19955;-78
2022/08/23 12:57:20;;;;;;;;;;;27.80;99.90;;;;;;5056861;28;19908;-78
2022/08/23 12:59:57;;;;;;;;;;;27.80;99.90;;;;;;5074863;28;19917;-80
2022/08/23 13:02:24;;;;;;;;;;;27.40;99.90;;;;;;5074449;28;19912;-81
2022/08/23 13:04:51;;;;;;;;;;;27.50;99.90;;;;;;5074269;28;20035;-83
2022/08/23 13:07:20;;;;;;;;;;;27.50;99.90;;;;;;5074446;28;19931;-83
2022/08/23 13:09:46;;;;;;;;;;;27.10;99.90;;;;;;5056178;28;19909;-81
2022/08/23 13:12:13;;;;;;;;;;;26.80;99.90;;;;;;5074050;28;19915;-80
2022/08/23 13:14:39;;;;;;;;;;;26.90;99.90;;;;;;5074343;28;20392;-79
2022/08/23 13:17:16;;;;;;;;;;;27.10;99.90;;;;;;5074228;28;19909;-82
2022/08/23 13:19:43;;;;;;;;;;;27.00;99.90;;;;;;5074504;28;19920;-81
2022/08/23 13:22:21;;;;;;;;;;;27.00;99.90;;;;;;5074840;28;20003;-78
2022/08/23 13:25:05;;;;;;;;;;;27.10;99.90;;;;;;5074320;28;19959;-79
2022/08/23 13:27:42;;;;;;;;;;;27.50;99.90;;;;;;5074221;28;19908;-80
2022/08/23 13:30:08;;;;;;;;;;;27.50;99.90;;;;;;5074203;28;19912;-79
2022/08/23 13:32:36;;;;;;;;;;;27.40;99.90;;;;;;5074545;28;20287;-80
2022/08/23 13:35:20;;;;;;;;;;;27.50;99.90;;;;;;5074768;28;19909;-80
2022/08/23 13:37:46;;;;;;;;;;;27.50;99.90;;;;;;5074478;28;20281;-80
2022/08/23 13:40:21;;;;;;;;;;;27.40;99.90;;;;;;5074297;28;19912;-81
2022/08/23 13:42:49;;;;;;;;;;;27.40;99.90;;;;;;5055940;28;20261;-81
2022/08/23 13:45:18;;;;;;;;;;;27.70;99.90;;;;;;5074578;28;20288;-80
2022/08/23 13:47:46;;;;;;;;;;;27.80;99.90;;;;;;5074272;28;20277;-78
2022/08/23 13:50:21;;;;;;;;;;;27.80;99.90;;;;;;5074593;28;20449;-78
2022/08/23 13:52:47;;;;;;;;;;;27.80;99.90;;;;;;5077424;28;19908;-81
2022/08/23 13:55:12;;;;;;;;;;;27.90;99.90;;;;;;5078459;28;19919;-78
2022/08/23 13:57:39;;;;;;;;;;;28.10;99.90;;;;;;5079182;28;19940;-81
2022/08/23 14:00:09;;;;;;;;;;;28.40;99.90;;;;;;5078349;28;20009;-79
2022/08/23 14:02:35;;;;;;;;;;;28.40;99.90;;;;;;5060383;28;20379;-81
2022/08/23 14:05:02;;;;;;;;;;;28.60;99.90;;;;;;5078587;28;20019;-79
2022/08/23 14:07:28;;;;;;;;;;;28.20;99.90;;;;;;5078229;28;20007;-79
2022/08/23 14:09:55;;;;;;;;;;;28.10;99.90;;;;;;5078019;28;19952;-80
2022/08/23 14:12:22;;;;;;;;;;;28.00;99.90;;;;;;5078161;28;19932;-78
2022/08/23 14:14:48;;;;;;;;;;;28.10;99.90;;;;;;5078656;28;19908;-80
2022/08/23 14:17:14;;;;;;;;;;;28.20;99.90;;;;;;5077971;28;19915;-80
2022/08/23 14:19:42;;;;;;;;;;;28.30;99.90;;;;;;5077473;28;19927;-77
2022/08/23 14:22:07;;;;;;;;;;;27.90;99.90;;;;;;5059624;28;19920;-81
2022/08/23 14:24:33;;;;;;;;;;;28.20;99.90;;;;;;5077501;28;20288;-83
2022/08/23 14:26:59;;;;;;;;;;;28.60;99.90;;;;;;5077267;28;19909;-83
2022/08/23 14:29:26;;;;;;;;;;;29.00;99.90;;;;;;5077664;28;19908;-82
2022/08/23 14:31:52;;;;;;;;;;;29.00;99.90;;;;;;5077030;28;19916;-84